This is the latest recevied weather packets stored in our database for station/object OE-11372. If no packets are shown the sender has not sent any weather packets the latest 10 day(s).
| Time | Temp. | Humidity | Pressure | Rain* | Wind** | Luminosity | Snow |
|---|---|---|---|---|---|---|---|
| 1787980275 | 11.67° C | 93% | 853.5 hPa | 0 mm | - | 25 W/m² | - |
| 1787979902 | 11.67° C | 93% | 853.5 hPa | 0 mm | - | 16 W/m² | - |
| 1787979303 | 11.67° C | 94% | 853.5 hPa | 0 mm | - | 8 W/m² | - |
| 1787978476 | 11.67° C | 95% | 853.7 hPa | 0 mm | - | 0 W/m² | - |
| 1787978102 | 11.67° C | 94% | 853.6 hPa | 0 mm | - | 0 W/m² | - |
| 1787977503 | 11.67° C | 93% | 853.7 hPa | 0 mm | - | 0 W/m² | - |
| 1787976676 | 11.67° C | 93% | 853.9 hPa | 0 mm | - | 0 W/m² | - |
| 1787976303 | 11.67° C | 94% | 854.1 hPa | 0 mm | - | 0 W/m² | - |
| 1787975703 | 11.67° C | 94% | 854.1 hPa | 0 mm | - | 0 W/m² | - |
| 1787975103 | 11.67° C | 95% | 854.1 hPa | 0 mm | - | 0 W/m² | - |
| 1787974502 | 11.67° C | 95% | 854.1 hPa | 0 mm | - | 0 W/m² | - |
| 1787973903 | 11.67° C | 95% | 854.2 hPa | 0 mm | - | 0 W/m² | - |
| 1787973075 | 11.67° C | 93% | 854.3 hPa | 0.25 mm | - | 0 W/m² | - |
| 1787972703 | 11.67° C | 94% | 854.4 hPa | 0.25 mm | - | 0 W/m² | - |
| 1787972103 | 11.67° C | 94% | 854.3 hPa | 0.25 mm | - | 0 W/m² | - |
| 1787971276 | 11.67° C | 94% | 854.6 hPa | 0.51 mm | - | 0 W/m² | - |
| 1787970903 | 11.67° C | 93% | 854.6 hPa | 1.52 mm | - | 0 W/m² | - |
| 1787970303 | 11.67° C | 93% | 854.7 hPa | 3.81 mm | - | 0 W/m² | - |
| 1787969475 | 12.22° C | 94% | 854.7 hPa | 3.81 mm | - | 0 W/m² | - |
| 1787969102 | 11.67° C | 93% | 854.6 hPa | 3.81 mm | - | 0 W/m² | - |
| 1787968503 | 12.22° C | 93% | 854.9 hPa | 4.32 mm | - | 0 W/m² | - |
| 1787967675 | 12.22° C | 92% | 854.9 hPa | 4.83 mm | - | 0 W/m² | - |
| 1787967303 | 12.22° C | 88% | 854.7 hPa | 4.57 mm | - | 0 W/m² | - |
| 1787966703 | 12.78° C | 92% | 855.7 hPa | 3.3 mm | - | 0 W/m² | - |
| 1787965876 | 12.78° C | 89% | 855.4 hPa | 1.02 mm | - | 0 W/m² | - |
* Rain latest hour (hover to see other rain measurements)
** Current wind speed in m/s (hover to see current wind gust speed)